createdAt,value
2019-05-25T00:01:26.617Z,56.18
2019-05-25T00:03:28.194Z,56.32
2019-05-25T00:05:29.964Z,56.57
2019-05-25T00:07:31.542Z,56.67
2019-05-25T00:09:33.178Z,56.69
2019-05-25T00:11:34.986Z,56.87
2019-05-25T00:13:36.621Z,57.02
2019-05-25T00:15:38.291Z,57.07
2019-05-25T00:17:39.927Z,57.05
2019-05-25T00:19:41.829Z,57.50
2019-05-25T00:21:43.661Z,57.78
2019-05-25T00:23:45.335Z,57.51
2019-05-25T00:25:47.006Z,57.89
2019-05-25T00:27:48.788Z,57.94
2019-05-25T00:29:50.461Z,57.81
2019-05-25T00:31:52.108Z,58.03
2019-05-25T00:33:53.811Z,58.26
2019-05-25T00:35:55.579Z,58.31
2019-05-25T00:37:57.257Z,58.52
2019-05-25T00:39:58.942Z,57.92
2019-05-25T00:42:00.579Z,58.10
2019-05-25T00:44:02.233Z,58.27
2019-05-25T00:46:03.959Z,58.12
2019-05-25T00:48:05.736Z,58.55
2019-05-25T00:50:07.511Z,59.03
2019-05-25T00:52:09.158Z,58.25
2019-05-25T00:54:10.859Z,58.49
2019-05-25T00:56:12.632Z,59.20
2019-05-25T00:58:14.411Z,59.07
2019-05-25T01:00:16.091Z,59.11
2019-05-25T01:02:17.748Z,58.92
2019-05-25T01:04:19.378Z,59.06
2019-05-25T01:06:21.819Z,59.80
2019-05-25T01:08:23.448Z,59.89
2019-05-25T01:10:25.096Z,59.62
2019-05-25T01:12:26.944Z,58.97
2019-05-25T01:14:28.720Z,59.94
2019-05-25T01:16:30.314Z,59.75
2019-05-25T01:18:31.964Z,60.14
2019-05-25T01:20:33.604Z,60.36
2019-05-25T01:22:35.214Z,60.31
2019-05-25T01:24:44.260Z,60.26
2019-05-25T01:26:38.558Z,60.68
2019-05-25T01:28:40.151Z,60.63
2019-05-25T01:30:42.010Z,60.68
2019-05-25T01:32:43.693Z,60.86
2019-05-25T01:34:45.563Z,60.81
2019-05-25T01:36:47.198Z,60.88
2019-05-25T01:38:48.911Z,60.94
2019-05-25T01:40:50.571Z,61.03
2019-05-25T01:42:52.210Z,61.02
2019-05-25T01:44:53.897Z,61.14
2019-05-25T01:46:55.498Z,61.25
2019-05-25T01:48:57.112Z,61.43
2019-05-25T01:50:58.852Z,61.37
2019-05-25T01:53:00.482Z,61.60
2019-05-25T01:55:02.112Z,61.46
2019-05-25T01:57:03.975Z,61.45
2019-05-25T01:59:05.637Z,61.58
2019-05-25T02:01:07.264Z,61.52
2019-05-25T02:03:08.891Z,61.54
2019-05-25T02:05:10.774Z,61.10
2019-05-25T02:07:12.403Z,61.03
2019-05-25T02:09:14.056Z,60.54
2019-05-25T02:11:15.692Z,60.24
2019-05-25T02:13:17.290Z,59.71
2019-05-25T02:15:19.648Z,59.54
2019-05-25T02:17:21.282Z,59.17
2019-05-25T02:19:22.911Z,58.88
2019-05-25T02:21:24.566Z,58.94
2019-05-25T02:23:26.243Z,58.86
2019-05-25T02:25:27.922Z,58.63
2019-05-25T02:27:29.587Z,58.40
2019-05-25T02:29:31.455Z,58.20
2019-05-25T02:31:33.030Z,58.19
2019-05-25T02:33:34.719Z,58.06
2019-05-25T02:35:36.323Z,57.81
2019-05-25T02:37:38.070Z,57.21
2019-05-25T02:39:39.718Z,56.74
2019-05-25T02:41:41.582Z,56.81
2019-05-25T02:43:43.305Z,56.88
2019-05-25T02:45:44.968Z,57.21
2019-05-25T02:47:46.880Z,57.62
2019-05-25T02:49:48.506Z,57.72
2019-05-25T02:51:50.151Z,57.59
2019-05-25T02:53:52.413Z,57.68
2019-05-25T02:55:54.014Z,58.06
2019-05-25T02:57:55.590Z,58.09
2019-05-25T02:59:57.263Z,58.28
2019-05-25T03:01:59.077Z,58.54
2019-05-25T03:04:00.684Z,58.69
2019-05-25T03:06:02.596Z,59.11
2019-05-25T03:08:04.250Z,59.10
2019-05-25T03:10:05.936Z,59.25
2019-05-25T03:12:07.547Z,59.53
2019-05-25T03:14:09.118Z,59.49
2019-05-25T03:16:10.795Z,59.68
2019-05-25T03:18:12.469Z,59.72
2019-05-25T03:20:14.245Z,59.80
2019-05-25T03:22:15.882Z,59.87
2019-05-25T03:24:17.494Z,60.03
2019-05-25T03:26:19.122Z,59.96
2019-05-25T03:28:20.746Z,60.31
2019-05-25T03:30:22.518Z,60.39
2019-05-25T03:32:24.095Z,60.16
2019-05-25T03:34:25.722Z,60.06
2019-05-25T03:36:27.368Z,60.31
2019-05-25T03:38:28.967Z,60.36
2019-05-25T03:40:30.657Z,60.51
2019-05-25T03:42:32.455Z,61.11
2019-05-25T03:44:34.030Z,61.39
2019-05-25T03:46:35.700Z,61.45
2019-05-25T03:48:37.376Z,61.72
2019-05-25T03:50:39.276Z,61.63
2019-05-25T03:52:41.277Z,61.76
2019-05-25T03:54:42.918Z,61.81
2019-05-25T03:56:44.490Z,61.77
2019-05-25T03:58:46.147Z,61.67
2019-05-25T04:00:47.726Z,61.61
2019-05-25T04:02:49.523Z,61.38
2019-05-25T04:04:51.186Z,61.43
2019-05-25T04:06:52.816Z,61.53
2019-05-25T04:08:54.447Z,61.32
2019-05-25T04:10:56.497Z,61.33
2019-05-25T04:12:58.155Z,61.36
2019-05-25T04:14:59.845Z,61.45
2019-05-25T04:17:01.493Z,61.55
2019-05-25T04:19:03.305Z,61.15
2019-05-25T04:21:04.937Z,61.05
2019-05-25T04:23:06.589Z,60.88
2019-05-25T04:25:08.218Z,60.89
2019-05-25T04:27:09.890Z,61.07
2019-05-25T04:29:11.520Z,60.91
2019-05-25T04:31:13.114Z,60.80
2019-05-25T04:33:14.705Z,61.19
2019-05-25T04:35:16.351Z,61.03
2019-05-25T04:37:17.947Z,60.90
2019-05-25T04:39:20.293Z,60.92
2019-05-25T04:41:21.931Z,61.06
2019-05-25T04:43:23.595Z,60.99
2019-05-25T04:45:25.475Z,60.99
2019-05-25T04:47:27.427Z,60.79
2019-05-25T04:49:29.236Z,61.00
2019-05-25T04:51:31.009Z,61.12
2019-05-25T04:53:32.643Z,61.02
2019-05-25T04:55:34.271Z,60.85
2019-05-25T04:57:36.644Z,61.13
2019-05-25T04:59:38.270Z,61.21
2019-05-25T05:01:39.847Z,60.82
2019-05-25T05:03:41.486Z,61.01
2019-05-25T05:05:43.777Z,61.14
2019-05-25T05:07:45.415Z,61.36
2019-05-25T05:10:01.771Z,61.54
2019-05-25T05:11:48.777Z,61.52
2019-05-25T05:13:50.547Z,61.56
2019-05-25T05:15:52.246Z,61.20
2019-05-25T05:17:53.823Z,61.84
2019-05-25T05:19:55.464Z,61.66
2019-05-25T05:21:57.158Z,61.60
2019-05-25T05:23:58.797Z,61.70
2019-05-25T05:26:00.422Z,61.41
2019-05-25T05:28:02.016Z,61.75
2019-05-25T05:30:03.647Z,61.78
2019-05-25T05:32:05.318Z,61.91
2019-05-25T05:34:06.897Z,62.25
2019-05-25T05:36:08.899Z,62.25
2019-05-25T05:38:10.498Z,62.37
2019-05-25T05:40:12.374Z,62.28
2019-05-25T05:42:14.155Z,62.57
2019-05-25T05:44:15.795Z,62.34
2019-05-25T05:46:17.374Z,62.70
2019-05-25T05:48:19.216Z,62.80
2019-05-25T05:50:20.847Z,62.76
2019-05-25T05:52:23.172Z,62.48
2019-05-25T05:54:24.825Z,62.62
2019-05-25T05:56:26.419Z,62.39
2019-05-25T05:58:28.066Z,62.02
2019-05-25T06:00:29.697Z,62.30
2019-05-25T06:02:31.326Z,62.00
2019-05-25T06:04:32.998Z,62.60
2019-05-25T06:06:34.658Z,62.53
2019-05-25T06:08:36.460Z,62.34
2019-05-25T06:10:38.340Z,62.17
2019-05-25T06:12:40.245Z,62.13
2019-05-25T06:14:41.900Z,61.96
2019-05-25T06:16:43.566Z,61.67
2019-05-25T06:18:45.248Z,61.89
2019-05-25T06:20:47.285Z,61.78
2019-05-25T06:22:48.902Z,61.80
2019-05-25T06:24:50.537Z,61.77
2019-05-25T06:26:52.606Z,61.68
2019-05-25T06:28:54.235Z,61.84
2019-05-25T06:30:55.864Z,62.05
2019-05-25T06:32:57.573Z,61.85
2019-05-25T06:34:59.175Z,61.87
2019-05-25T06:37:00.801Z,61.70
2019-05-25T06:39:02.495Z,61.75
2019-05-25T06:41:08.568Z,61.62
2019-05-25T06:43:07.580Z,61.68
2019-05-25T06:45:09.182Z,61.70
2019-05-25T06:47:11.027Z,61.87
2019-05-25T06:49:12.685Z,61.97
2019-05-25T06:51:14.314Z,62.03
2019-05-25T06:53:15.942Z,62.22
2019-05-25T06:55:17.576Z,62.35
2019-05-25T06:57:19.614Z,62.62
2019-05-25T06:59:21.186Z,62.28
2019-05-25T07:01:22.811Z,62.33
2019-05-25T07:03:24.527Z,61.61
2019-05-25T07:05:26.164Z,61.99
2019-05-25T07:07:27.870Z,61.52
2019-05-25T07:09:29.562Z,61.51
2019-05-25T07:11:31.190Z,61.56
2019-05-25T07:13:32.851Z,61.71
2019-05-25T07:15:34.567Z,61.62
2019-05-25T07:17:36.165Z,61.55
2019-05-25T07:19:37.939Z,61.28
2019-05-25T07:21:39.795Z,61.24
2019-05-25T07:23:41.674Z,61.23
2019-05-25T07:25:43.287Z,60.96
2019-05-25T07:27:58.121Z,60.74
2019-05-25T07:29:48.127Z,60.55
2019-05-25T07:31:49.793Z,60.43
2019-05-25T07:33:51.474Z,60.33
2019-05-25T07:35:53.122Z,60.01
2019-05-25T07:37:54.754Z,58.32
2019-05-25T07:39:56.400Z,58.36
2019-05-25T07:41:58.072Z,57.70
2019-05-25T07:43:59.675Z,57.15
2019-05-25T07:46:01.346Z,57.31
2019-05-25T07:48:02.969Z,57.57
2019-05-25T07:50:04.968Z,57.25
2019-05-25T07:52:06.647Z,56.64
2019-05-25T07:54:08.420Z,56.84
2019-05-25T07:56:10.060Z,56.77
2019-05-25T07:58:17.264Z,55.94
2019-05-25T08:00:13.380Z,55.83
2019-05-25T08:02:15.074Z,55.47
2019-05-25T08:04:16.892Z,54.71
2019-05-25T08:06:18.664Z,55.23
2019-05-25T08:08:20.341Z,55.45
2019-05-25T08:10:22.014Z,55.39
2019-05-25T08:12:24.009Z,55.19
2019-05-25T08:14:25.622Z,55.07
2019-05-25T08:16:27.342Z,54.72
2019-05-25T08:18:28.982Z,54.95
2019-05-25T08:20:30.606Z,54.57
2019-05-25T08:22:32.480Z,54.51
2019-05-25T08:24:34.255Z,54.35
2019-05-25T08:26:36.022Z,54.37
2019-05-25T08:28:37.659Z,54.36
2019-05-25T08:30:39.327Z,53.67
2019-05-25T08:32:41.033Z,54.07
2019-05-25T08:34:43.747Z,53.07
2019-05-25T08:36:45.398Z,53.77
2019-05-25T08:38:47.084Z,52.20
2019-05-25T08:40:48.706Z,53.79
2019-05-25T08:42:50.437Z,54.01
2019-05-25T08:44:52.108Z,54.00
2019-05-25T08:46:55.541Z,53.20
2019-05-25T08:48:55.490Z,53.43
2019-05-25T08:50:59.565Z,53.24
2019-05-25T08:52:59.144Z,53.26
2019-05-25T08:55:00.910Z,52.96
2019-05-25T08:57:02.673Z,53.06
2019-05-25T08:59:04.354Z,52.89
2019-05-25T09:01:06.116Z,53.03
2019-05-25T09:03:08.117Z,52.68
2019-05-25T09:05:10.075Z,52.54
2019-05-25T09:07:11.768Z,52.38
2019-05-25T09:09:13.425Z,52.52
2019-05-25T09:11:15.078Z,52.36
2019-05-25T09:13:16.813Z,51.99
2019-05-25T09:15:18.543Z,52.28
2019-05-25T09:17:20.189Z,51.04
2019-05-25T09:19:21.939Z,51.85
2019-05-25T09:21:24.005Z,51.64
2019-05-25T09:23:31.484Z,52.17
2019-05-25T09:25:33.415Z,52.17
2019-05-25T09:27:35.852Z,52.13
2019-05-25T09:29:38.249Z,52.21
2019-05-25T09:31:40.803Z,52.13
2019-05-25T09:33:42.418Z,52.52
2019-05-25T09:35:44.039Z,52.83
2019-05-25T09:37:45.714Z,52.90
2019-05-25T09:39:47.300Z,53.22
2019-05-25T09:41:48.965Z,53.29
2019-05-25T09:43:51.041Z,52.94
2019-05-25T09:45:52.870Z,53.10
2019-05-25T09:47:54.502Z,53.12
2019-05-25T09:49:56.130Z,53.03
2019-05-25T09:51:57.735Z,53.12
2019-05-25T09:53:59.466Z,53.10
2019-05-25T09:56:01.098Z,53.27
2019-05-25T09:58:02.715Z,53.04
2019-05-25T10:00:04.355Z,53.20
2019-05-25T10:02:06.046Z,53.00
2019-05-25T10:04:07.616Z,53.16
2019-05-25T10:06:12.674Z,53.17
2019-05-25T10:08:11.119Z,53.35
2019-05-25T10:10:12.753Z,53.54
2019-05-25T10:12:16.293Z,53.67
2019-05-25T10:14:16.535Z,53.26
2019-05-25T10:16:18.163Z,53.32
2019-05-25T10:18:19.870Z,53.10
2019-05-25T10:20:21.514Z,52.96
2019-05-25T10:22:23.161Z,53.00
2019-05-25T10:24:24.803Z,53.57
2019-05-25T10:26:26.408Z,53.37
2019-05-25T10:28:28.041Z,53.36
2019-05-25T10:30:29.803Z,53.03
2019-05-25T10:32:31.770Z,52.90
2019-05-25T10:34:33.395Z,53.16
2019-05-25T10:36:35.320Z,53.10
2019-05-25T10:38:37.014Z,53.34
2019-05-25T10:40:38.784Z,53.53
2019-05-25T10:42:40.910Z,53.22
2019-05-25T10:44:42.650Z,53.33
2019-05-25T10:46:44.298Z,53.21
2019-05-25T10:48:45.950Z,53.03
2019-05-25T10:50:47.548Z,52.97
2019-05-25T10:52:49.182Z,52.86
2019-05-25T10:54:50.921Z,52.92
2019-05-25T10:56:52.554Z,53.05
2019-05-25T10:58:54.363Z,53.09
2019-05-25T11:00:55.938Z,53.32
2019-05-25T11:02:57.599Z,52.98
2019-05-25T11:04:59.277Z,53.29
2019-05-25T11:07:00.926Z,53.38
2019-05-25T11:09:02.983Z,53.79
2019-05-25T11:11:04.636Z,53.72
2019-05-25T11:13:06.350Z,54.29
2019-05-25T11:15:08.011Z,54.17
2019-05-25T11:17:09.631Z,54.06
2019-05-25T11:19:11.894Z,54.27
2019-05-25T11:21:13.499Z,54.98
2019-05-25T11:23:15.107Z,54.73
2019-05-25T11:25:16.944Z,54.19
2019-05-25T11:27:18.720Z,54.51
2019-05-25T11:29:20.742Z,54.50
2019-05-25T11:31:22.377Z,54.24
2019-05-25T11:33:24.006Z,54.12
2019-05-25T11:35:26.094Z,53.87
2019-05-25T11:37:27.744Z,53.46
2019-05-25T11:39:29.382Z,53.36
2019-05-25T11:41:31.146Z,53.27
2019-05-25T11:43:32.726Z,52.98
2019-05-25T11:45:34.355Z,53.25
2019-05-25T11:47:36.030Z,53.16
2019-05-25T11:49:38.293Z,53.06
2019-05-25T11:51:39.958Z,53.10
2019-05-25T11:53:41.709Z,53.30
2019-05-25T11:55:43.378Z,53.39
2019-05-25T11:57:45.001Z,53.41
2019-05-25T11:59:46.606Z,53.24
2019-05-25T12:01:48.282Z,53.47
2019-05-25T12:03:49.930Z,53.40
2019-05-25T12:05:51.666Z,53.46
2019-05-25T12:07:53.430Z,53.55
2019-05-25T12:09:55.066Z,53.48
2019-05-25T12:11:56.758Z,53.67
2019-05-25T12:13:58.411Z,53.66
2019-05-25T12:16:00.038Z,53.66
2019-05-25T12:18:01.799Z,53.53
2019-05-25T12:20:03.450Z,53.79
2019-05-25T12:22:05.359Z,53.74
2019-05-25T12:24:07.005Z,53.33
2019-05-25T12:26:08.583Z,53.25
2019-05-25T12:28:10.156Z,53.16
2019-05-25T12:30:11.847Z,53.14
2019-05-25T12:32:13.543Z,53.22
2019-05-25T12:34:15.118Z,53.17
2019-05-25T12:36:16.695Z,53.15
2019-05-25T12:38:18.344Z,53.19
2019-05-25T12:40:20.866Z,52.97
2019-05-25T12:42:22.505Z,53.09
2019-05-25T12:44:24.278Z,52.96
2019-05-25T12:46:26.178Z,52.98
2019-05-25T12:48:28.501Z,53.10
2019-05-25T12:50:30.572Z,53.09
2019-05-25T12:52:32.302Z,52.96
2019-05-25T12:54:33.946Z,52.99
2019-05-25T12:56:35.573Z,53.20
2019-05-25T12:58:37.326Z,53.33
2019-05-25T13:00:38.959Z,53.57
2019-05-25T13:02:40.580Z,53.82
2019-05-25T13:04:42.367Z,53.85
2019-05-25T13:06:44.026Z,53.66
2019-05-25T13:08:45.694Z,53.34
2019-05-25T13:10:47.345Z,53.39
2019-05-25T13:12:49.007Z,53.42
2019-05-25T13:14:50.717Z,53.36
2019-05-25T13:16:52.606Z,53.28
2019-05-25T13:18:54.258Z,53.54
2019-05-25T13:20:55.856Z,53.59
2019-05-25T13:22:57.943Z,53.67
2019-05-25T13:24:59.577Z,53.72
2019-05-25T13:27:01.270Z,53.84
2019-05-25T13:29:02.876Z,53.89
2019-05-25T13:31:11.765Z,53.46
2019-05-25T13:33:06.314Z,54.51
2019-05-25T13:35:08.070Z,53.97
2019-05-25T13:37:09.955Z,53.84
2019-05-25T13:39:11.538Z,53.91
2019-05-25T13:41:13.329Z,54.16
2019-05-25T13:43:14.978Z,54.31
2019-05-25T13:45:16.654Z,54.47
2019-05-25T13:47:18.287Z,54.56
2019-05-25T13:49:19.935Z,54.74
2019-05-25T13:51:21.566Z,54.91
2019-05-25T13:53:23.166Z,55.21
2019-05-25T13:55:24.916Z,55.51
2019-05-25T13:57:26.550Z,55.66
2019-05-25T13:59:28.178Z,55.51
2019-05-25T14:01:30.607Z,55.47
2019-05-25T14:03:32.346Z,55.62
2019-05-25T14:05:33.978Z,55.75
2019-05-25T14:07:35.887Z,55.84
2019-05-25T14:09:37.487Z,55.83
2019-05-25T14:11:39.121Z,55.78
2019-05-25T14:13:40.776Z,55.81
2019-05-25T14:15:42.474Z,55.86
2019-05-25T14:17:44.054Z,55.89
2019-05-25T14:19:45.692Z,55.91
2019-05-25T14:21:47.295Z,55.94
2019-05-25T14:23:48.922Z,56.02
2019-05-25T14:25:50.559Z,56.08
2019-05-25T14:27:52.318Z,56.12
2019-05-25T14:29:53.986Z,56.12
2019-05-25T14:31:55.762Z,56.16
2019-05-25T14:33:57.346Z,56.21
2019-05-25T14:35:58.978Z,56.26
2019-05-25T14:38:01.073Z,56.28
2019-05-25T14:40:03.379Z,56.26
2019-05-25T14:42:05.214Z,56.27
2019-05-25T14:44:06.812Z,56.29
2019-05-25T14:46:08.508Z,56.29
2019-05-25T14:48:10.083Z,56.30
2019-05-25T14:50:11.855Z,56.33
2019-05-25T14:52:13.732Z,56.33
2019-05-25T14:54:15.313Z,56.36
2019-05-25T14:56:17.078Z,56.39
2019-05-25T14:58:18.724Z,56.46
2019-05-25T15:00:20.428Z,56.49
2019-05-25T15:02:22.107Z,56.53
2019-05-25T15:04:23.729Z,56.50
2019-05-25T15:06:25.550Z,56.36
2019-05-25T15:08:27.226Z,56.10
2019-05-25T15:10:28.890Z,55.95
2019-05-25T15:12:30.674Z,55.84
2019-05-25T15:14:32.749Z,55.77
2019-05-25T15:16:34.382Z,55.67
2019-05-25T15:18:36.011Z,55.57
2019-05-25T15:20:37.780Z,55.41
2019-05-25T15:22:39.438Z,55.38
2019-05-25T15:24:41.919Z,55.38
2019-05-25T15:26:43.522Z,55.40
2019-05-25T15:28:45.397Z,55.48
2019-05-25T15:30:47.479Z,55.57
2019-05-25T15:32:49.117Z,55.60
2019-05-25T15:34:50.762Z,55.66
2019-05-25T15:36:52.406Z,55.70
2019-05-25T15:38:54.047Z,55.79
2019-05-25T15:40:55.748Z,56.04
2019-05-25T15:42:57.421Z,55.86
2019-05-25T15:44:59.407Z,55.64
2019-05-25T15:47:04.708Z,55.65
2019-05-25T15:49:02.953Z,55.76
2019-05-25T15:51:04.630Z,55.80
2019-05-25T15:53:06.534Z,55.83
2019-05-25T15:55:08.218Z,55.87
2019-05-25T15:57:09.822Z,55.87
2019-05-25T15:59:11.540Z,56.13
2019-05-25T16:01:13.204Z,55.81
2019-05-25T16:03:14.866Z,55.72
2019-05-25T16:05:16.495Z,55.68
2019-05-25T16:07:18.070Z,55.90
2019-05-25T16:09:19.901Z,55.66
2019-05-25T16:11:21.569Z,55.74
2019-05-25T16:13:23.571Z,55.52
2019-05-25T16:15:25.338Z,55.29
2019-05-25T16:17:27.108Z,55.93
2019-05-25T16:19:28.690Z,55.55
2019-05-25T16:21:30.338Z,55.62
2019-05-25T16:23:31.967Z,55.79
2019-05-25T16:25:33.615Z,56.05
2019-05-25T16:27:35.446Z,56.38
2019-05-25T16:29:37.091Z,55.95
2019-05-25T16:31:38.729Z,55.11
2019-05-25T16:33:40.967Z,55.16
2019-05-25T16:35:42.890Z,54.89
2019-05-25T16:37:45.112Z,54.86
2019-05-25T16:39:47.057Z,54.84
2019-05-25T16:41:49.066Z,54.91
2019-05-25T16:43:50.716Z,55.00
2019-05-25T16:45:52.489Z,55.10
2019-05-25T16:47:54.155Z,55.20
2019-05-25T16:49:55.758Z,55.23
2019-05-25T16:51:57.339Z,55.34
2019-05-25T16:53:58.935Z,55.43
2019-05-25T16:56:00.572Z,55.52
2019-05-25T16:58:02.942Z,55.59
2019-05-25T17:00:04.547Z,55.68
2019-05-25T17:02:06.203Z,55.71
2019-05-25T17:04:07.926Z,55.78
2019-05-25T17:06:09.643Z,55.82
2019-05-25T17:08:11.516Z,55.90
2019-05-25T17:10:13.167Z,55.94
2019-05-25T17:12:14.798Z,56.00
2019-05-25T17:14:17.071Z,56.05
2019-05-25T17:16:18.724Z,56.10
2019-05-25T17:18:20.501Z,56.12
2019-05-25T17:20:22.734Z,56.13
2019-05-25T17:22:24.462Z,56.22
2019-05-25T17:24:26.239Z,56.24
2019-05-25T17:26:27.870Z,56.34
2019-05-25T17:28:29.529Z,56.41
2019-05-25T17:30:31.208Z,56.48
2019-05-25T17:32:32.842Z,56.53
2019-05-25T17:34:34.762Z,56.60
2019-05-25T17:36:36.401Z,56.59
2019-05-25T17:38:37.998Z,56.56
2019-05-25T17:40:39.578Z,56.37
2019-05-25T17:42:41.233Z,56.25
2019-05-25T17:44:42.903Z,56.17
2019-05-25T17:46:44.541Z,56.01
2019-05-25T17:48:46.140Z,55.87
2019-05-25T17:50:47.790Z,55.75
2019-05-25T17:52:49.418Z,55.76
2019-05-25T17:54:51.207Z,55.75
2019-05-25T17:56:52.911Z,55.77
2019-05-25T17:58:54.568Z,55.86
2019-05-25T18:00:56.221Z,55.95
2019-05-25T18:02:57.914Z,56.00
2019-05-25T18:04:59.541Z,56.10
2019-05-25T18:07:01.198Z,56.16
2019-05-25T18:09:02.798Z,56.24
2019-05-25T18:11:04.435Z,56.29
2019-05-25T18:13:06.039Z,56.16
2019-05-25T18:15:07.666Z,56.05
2019-05-25T18:17:09.296Z,55.97
2019-05-25T18:19:10.919Z,55.91
2019-05-25T18:21:12.565Z,55.82
2019-05-25T18:23:14.190Z,55.74
2019-05-25T18:25:15.839Z,55.66
2019-05-25T18:27:17.480Z,55.65
2019-05-25T18:29:19.147Z,55.71
2019-05-25T18:31:20.793Z,55.78
2019-05-25T18:33:22.446Z,55.86
2019-05-25T18:35:24.212Z,55.91
2019-05-25T18:37:25.864Z,56.00
2019-05-25T18:39:27.558Z,56.07
2019-05-25T18:41:29.194Z,56.15
2019-05-25T18:43:30.825Z,56.05
2019-05-25T18:45:32.524Z,55.93
2019-05-25T18:47:34.139Z,55.88
2019-05-25T18:49:35.854Z,55.84
2019-05-25T18:51:37.514Z,55.88
2019-05-25T18:53:39.177Z,55.96
2019-05-25T18:55:40.850Z,56.01
2019-05-25T18:57:42.504Z,56.03
2019-05-25T18:59:44.158Z,55.97
2019-05-25T19:01:45.824Z,55.89
2019-05-25T19:03:47.407Z,55.79
2019-05-25T19:05:49.000Z,55.68
2019-05-25T19:07:50.626Z,55.56
2019-05-25T19:09:52.273Z,55.49
2019-05-25T19:11:53.943Z,55.44
2019-05-25T19:13:55.574Z,55.37
2019-05-25T19:15:57.146Z,55.29
2019-05-25T19:17:59.129Z,55.30
2019-05-25T19:20:00.725Z,55.38
2019-05-25T19:22:02.404Z,55.38
2019-05-25T19:24:04.007Z,55.47
2019-05-25T19:26:05.738Z,55.59
2019-05-25T19:28:07.440Z,55.64
2019-05-25T19:30:09.014Z,55.72
2019-05-25T19:32:10.673Z,55.82
2019-05-25T19:34:12.326Z,55.83
2019-05-25T19:36:13.984Z,55.74
2019-05-25T19:38:15.860Z,55.70
2019-05-25T19:40:17.510Z,55.70
2019-05-25T19:42:19.174Z,55.64
2019-05-25T19:44:20.846Z,55.62
2019-05-25T19:46:22.507Z,55.59
2019-05-25T19:48:24.149Z,55.60
2019-05-25T19:50:25.774Z,55.60
2019-05-25T19:52:27.407Z,55.69
2019-05-25T19:54:29.091Z,55.73
2019-05-25T19:56:30.831Z,55.80
2019-05-25T19:58:32.462Z,55.89
2019-05-25T20:00:34.161Z,55.94
2019-05-25T20:02:35.786Z,55.91
2019-05-25T20:04:37.487Z,55.86
2019-05-25T20:06:39.066Z,55.83
2019-05-25T20:08:40.694Z,55.70
2019-05-25T20:10:42.708Z,55.62
2019-05-25T20:12:44.352Z,55.53
2019-05-25T20:14:46.013Z,55.44
2019-05-25T20:16:47.701Z,55.36
2019-05-25T20:18:49.339Z,55.35
2019-05-25T20:20:51.003Z,55.37
2019-05-25T20:22:52.702Z,55.47
2019-05-25T20:24:54.355Z,55.52
2019-05-25T20:26:55.955Z,55.62
2019-05-25T20:28:57.610Z,55.70
2019-05-25T20:30:59.238Z,55.82
2019-05-25T20:33:01.000Z,55.87
2019-05-25T20:35:02.611Z,55.88
2019-05-25T20:37:04.329Z,55.97
2019-05-25T20:39:06.002Z,56.10
2019-05-25T20:41:07.601Z,56.17
2019-05-25T20:43:09.294Z,56.24
2019-05-25T20:45:10.955Z,56.30
2019-05-25T20:47:12.607Z,56.35
2019-05-25T20:49:14.246Z,56.43
2019-05-25T20:51:15.894Z,56.49
2019-05-25T20:53:17.531Z,56.59
2019-05-25T20:55:19.130Z,56.64
2019-05-25T20:57:21.038Z,56.67
2019-05-25T20:59:22.672Z,56.69
2019-05-25T21:01:24.363Z,56.77
2019-05-25T21:03:25.959Z,56.79
2019-05-25T21:05:27.586Z,56.87
2019-05-25T21:07:29.291Z,56.89
2019-05-25T21:09:30.883Z,56.89
2019-05-25T21:11:32.533Z,56.93
2019-05-25T21:13:34.131Z,56.96
2019-05-25T21:15:35.760Z,56.98
2019-05-25T21:17:37.462Z,57.00
2019-05-25T21:19:39.117Z,57.03
2019-05-25T21:21:40.810Z,57.07
2019-05-25T21:23:42.462Z,57.14
2019-05-25T21:25:44.042Z,57.14
2019-05-25T21:27:45.784Z,57.02
2019-05-25T21:29:47.373Z,56.93
2019-05-25T21:31:49.036Z,56.88
2019-05-25T21:33:50.806Z,56.73
2019-05-25T21:36:06.832Z,56.63
2019-05-25T21:37:54.082Z,56.76
2019-05-25T21:39:55.774Z,56.45
2019-05-25T21:41:57.398Z,56.41
2019-05-25T21:43:59.038Z,56.33
2019-05-25T21:46:00.672Z,56.42
2019-05-25T21:48:02.325Z,56.31
2019-05-25T21:50:03.994Z,56.22
2019-05-25T21:52:05.620Z,55.89
2019-05-25T21:54:07.283Z,55.71
2019-05-25T21:56:08.943Z,55.50
2019-05-25T21:58:11.138Z,54.11
2019-05-25T22:00:12.788Z,54.73
2019-05-25T22:02:14.457Z,54.12
2019-05-25T22:04:16.122Z,53.75
2019-05-25T22:06:24.238Z,54.28
2019-05-25T22:08:19.509Z,54.18
2019-05-25T22:10:21.122Z,54.12
2019-05-25T22:12:23.504Z,54.08
2019-05-25T22:14:26.063Z,53.88
2019-05-25T22:16:27.643Z,54.26
2019-05-25T22:18:29.373Z,54.30
2019-05-25T22:20:31.062Z,53.77
2019-05-25T22:22:32.731Z,54.38
2019-05-25T22:24:34.308Z,54.17
2019-05-25T22:26:36.306Z,53.58
2019-05-25T22:28:44.827Z,54.03
2019-05-25T22:30:39.670Z,53.74
2019-05-25T22:32:41.346Z,54.13
2019-05-25T22:34:42.970Z,54.11
2019-05-25T22:36:44.569Z,53.90
2019-05-25T22:38:46.199Z,54.39
2019-05-25T22:40:47.775Z,54.42
2019-05-25T22:42:50.147Z,54.55
2019-05-25T22:44:51.815Z,54.28
2019-05-25T22:46:53.440Z,54.40
2019-05-25T22:48:55.090Z,54.28
2019-05-25T22:50:56.733Z,55.47
2019-05-25T22:52:58.358Z,55.86
2019-05-25T22:54:59.982Z,56.32
2019-05-25T22:57:01.650Z,56.72
2019-05-25T22:59:03.280Z,56.88
2019-05-25T23:01:04.931Z,57.01
2019-05-25T23:03:06.610Z,57.20
2019-05-25T23:05:08.248Z,57.27
2019-05-25T23:07:09.915Z,57.39
2019-05-25T23:09:11.627Z,57.55
2019-05-25T23:11:13.249Z,57.62
2019-05-25T23:13:14.898Z,57.64
2019-05-25T23:15:16.507Z,57.76
2019-05-25T23:17:18.172Z,57.87
2019-05-25T23:19:19.750Z,57.99
2019-05-25T23:21:21.394Z,58.00
2019-05-25T23:23:23.051Z,58.15
2019-05-25T23:25:24.687Z,58.16
2019-05-25T23:27:26.378Z,58.37
2019-05-25T23:29:27.980Z,58.56
2019-05-25T23:31:29.616Z,58.55
2019-05-25T23:33:31.248Z,58.65
2019-05-25T23:35:32.875Z,59.01
2019-05-25T23:37:34.519Z,58.76
2019-05-25T23:39:36.198Z,59.00
2019-05-25T23:41:37.912Z,58.89
2019-05-25T23:43:39.575Z,58.95
2019-05-25T23:45:41.146Z,59.00
2019-05-25T23:47:42.841Z,59.05
2019-05-25T23:49:44.438Z,59.10
2019-05-25T23:51:46.106Z,59.37
2019-05-25T23:53:47.768Z,59.40
2019-05-25T23:55:49.366Z,59.57
2019-05-25T23:57:51.053Z,59.72
2019-05-25T23:59:52.765Z,59.69
